createdAt,value
2022-09-12T00:00:02.298Z,29.42
2022-09-12T00:05:04.113Z,33.70
2022-09-12T00:10:06.029Z,34.63
2022-09-12T00:15:07.956Z,35.38
2022-09-12T00:20:12.157Z,33.58
2022-09-12T00:25:13.640Z,30.40
2022-09-12T00:30:15.057Z,32.15
2022-09-12T00:35:16.482Z,30.25
2022-09-12T00:40:18.011Z,30.30
2022-09-12T00:45:27.102Z,29.67
2022-09-12T00:50:29.427Z,28.90
2022-09-12T00:55:38.367Z,27.13
2022-09-12T01:00:39.877Z,30.23
2022-09-12T01:05:50.098Z,27.05
2022-09-12T01:10:52.574Z,30.05
2022-09-12T01:15:53.928Z,27.85
2022-09-12T01:21:06.131Z,29.38
2022-09-12T01:26:47.883Z,28.27
2022-09-12T01:32:08.924Z,25.83
2022-09-12T01:37:28.296Z,29.48
2022-09-12T01:42:56.709Z,30.17
2022-09-12T01:48:21.528Z,26.88
2022-09-12T01:53:36.268Z,26.52
2022-09-12T01:58:47.761Z,26.38
2022-09-12T02:03:55.081Z,30.88
2022-09-12T02:09:03.328Z,32.72
2022-09-12T02:14:12.014Z,31.95
2022-09-12T02:19:18.270Z,29.10
2022-09-12T02:24:22.592Z,28.73
2022-09-12T02:29:24.023Z,30.17
2022-09-12T02:34:43.569Z,30.50
2022-09-12T02:39:45.599Z,28.58
2022-09-12T02:44:47.385Z,26.45
2022-09-12T02:49:48.803Z,26.00
2022-09-12T02:54:51.084Z,27.35
2022-09-12T02:59:58.476Z,27.27
2022-09-12T03:05:11.791Z,27.40
2022-09-12T03:10:31.912Z,32.15
2022-09-12T03:20:49.589Z,25.40
2022-09-12T03:26:02.252Z,26.73
2022-09-12T03:31:15.834Z,22.85
2022-09-12T03:36:22.732Z,23.10
2022-09-12T03:41:24.219Z,26.27
2022-09-12T03:46:25.667Z,27.30
2022-09-12T03:51:27.550Z,23.73
2022-09-12T03:56:29.040Z,23.77
2022-09-12T04:01:30.630Z,23.63
2022-09-12T04:06:32.202Z,24.88
2022-09-12T04:11:33.620Z,20.65
2022-09-12T04:16:35.039Z,23.27
2022-09-12T04:21:36.488Z,24.58
2022-09-12T04:26:37.827Z,21.08
2022-09-12T04:31:39.175Z,21.08
2022-09-12T04:36:40.586Z,20.88
2022-09-12T04:41:42.000Z,23.55
2022-09-12T04:46:46.216Z,24.75
2022-09-12T04:51:47.645Z,21.23
2022-09-12T04:56:50.597Z,21.67
2022-09-12T05:01:52.084Z,23.75
2022-09-12T05:06:53.564Z,20.85
2022-09-12T05:12:10.206Z,24.58
2022-09-12T05:17:11.853Z,21.67
2022-09-12T05:22:13.348Z,20.75
2022-09-12T05:27:15.080Z,23.73
2022-09-12T05:32:16.542Z,18.33
2022-09-12T05:37:17.916Z,19.75
2022-09-12T05:42:19.444Z,21.85
2022-09-12T05:47:20.815Z,18.95
2022-09-12T05:52:22.421Z,19.48
2022-09-12T05:57:23.774Z,19.92
2022-09-12T06:02:25.473Z,20.50
2022-09-12T06:07:26.898Z,16.90
2022-09-12T06:12:29.721Z,18.10
2022-09-12T06:17:31.207Z,17.33
2022-09-12T06:22:32.767Z,20.38
2022-09-12T06:27:34.412Z,20.23
2022-09-12T06:32:36.075Z,19.20
2022-09-12T06:37:37.497Z,17.75
2022-09-12T06:42:38.890Z,19.08
2022-09-12T06:47:40.340Z,16.35
2022-09-12T06:52:41.790Z,14.73
2022-09-12T06:57:43.271Z,16.77
2022-09-12T07:02:44.760Z,15.20
2022-09-12T07:07:46.273Z,16.27
2022-09-12T07:12:47.829Z,18.17
2022-09-12T07:17:49.201Z,15.57
2022-09-12T07:22:50.768Z,14.32
2022-09-12T07:27:52.979Z,18.55
2022-09-12T07:32:54.525Z,19.65
2022-09-12T07:37:56.097Z,18.38
2022-09-12T07:50:08.981Z,15.68
2022-09-12T08:06:49.024Z,13.18
2022-09-12T08:17:18.593Z,12.82
2022-09-12T08:22:20.401Z,14.48
2022-09-12T08:27:24.719Z,15.13
2022-09-12T08:32:26.406Z,14.27
2022-09-12T08:37:33.822Z,17.77
2022-09-12T08:43:32.906Z,12.90
2022-09-12T08:48:50.875Z,13.27
2022-09-12T08:54:25.940Z,12.13
2022-09-12T08:59:33.567Z,13.70
2022-09-12T09:05:15.740Z,12.68
2022-09-12T09:10:27.498Z,14.15
2022-09-12T09:20:51.932Z,10.73
2022-09-12T09:37:19.031Z,8.60
2022-09-12T09:43:00.358Z,10.35
